sensor_id;sensor_type;location;lat;lon;timestamp;pressure;altitude;pressure_sealevel;temperature;humidity
71149;BME280;59072;42.144;25.200;2024-01-30T00:00:54;102277.50;;;0.04;69.89
71149;BME280;59072;42.144;25.200;2024-01-30T00:03:19;102287.84;;;0.20;69.31
71149;BME280;59072;42.144;25.200;2024-01-30T00:05:44;102303.56;;;0.34;69.32
71149;BME280;59072;42.144;25.200;2024-01-30T00:08:10;102249.22;;;-0.05;69.43
71149;BME280;59072;42.144;25.200;2024-01-30T00:10:35;102297.34;;;0.23;70.49
71149;BME280;59072;42.144;25.200;2024-01-30T00:13:01;102316.91;;;0.31;70.73
71149;BME280;59072;42.144;25.200;2024-01-30T00:15:27;102303.59;;;0.20;70.11
71149;BME280;59072;42.144;25.200;2024-01-30T00:17:53;102320.66;;;0.27;70.00
71149;BME280;59072;42.144;25.200;2024-01-30T00:20:18;102274.41;;;-0.17;71.44
71149;BME280;59072;42.144;25.200;2024-01-30T00:22:44;102298.22;;;-0.06;71.73
71149;BME280;59072;42.144;25.200;2024-01-30T00:25:09;102308.69;;;0.09;71.00
71149;BME280;59072;42.144;25.200;2024-01-30T00:27:35;102300.63;;;0.12;71.48
71149;BME280;59072;42.144;25.200;2024-01-30T00:30:01;102310.56;;;0.21;70.65
71149;BME280;59072;42.144;25.200;2024-01-30T00:32:26;102303.63;;;0.06;70.34
71149;BME280;59072;42.144;25.200;2024-01-30T00:34:51;102297.63;;;0.04;69.89
71149;BME280;59072;42.144;25.200;2024-01-30T00:37:17;102293.53;;;-0.29;71.10
71149;BME280;59072;42.144;25.200;2024-01-30T00:39:42;102301.09;;;-0.10;71.77
71149;BME280;59072;42.144;25.200;2024-01-30T00:42:08;102306.63;;;-0.01;70.67
71149;BME280;59072;42.144;25.200;2024-01-30T00:44:36;102302.72;;;-0.22;71.65
71149;BME280;59072;42.144;25.200;2024-01-30T00:47:04;102317.22;;;0.12;70.99
71149;BME280;59072;42.144;25.200;2024-01-30T00:49:29;102302.72;;;-0.22;72.67
71149;BME280;59072;42.144;25.200;2024-01-30T00:51:55;102304.09;;;-0.16;72.07
71149;BME280;59072;42.144;25.200;2024-01-30T00:54:20;102273.28;;;-0.13;72.24
71149;BME280;59072;42.144;25.200;2024-01-30T00:56:45;102326.84;;;0.12;70.74
71149;BME280;59072;42.144;25.200;2024-01-30T00:59:11;102325.75;;;0.02;71.72
71149;BME280;59072;42.144;25.200;2024-01-30T01:01:37;102324.44;;;-0.20;72.37
71149;BME280;59072;42.144;25.200;2024-01-30T01:04:02;102325.38;;;-0.21;71.94
71149;BME280;59072;42.144;25.200;2024-01-30T01:06:28;102295.00;;;-0.11;71.28
71149;BME280;59072;42.144;25.200;2024-01-30T01:08:53;102319.94;;;-0.18;72.23
71149;BME280;59072;42.144;25.200;2024-01-30T01:11:18;102315.44;;;-0.30;72.85
71149;BME280;59072;42.144;25.200;2024-01-30T01:13:44;102297.47;;;-0.22;72.67
71149;BME280;59072;42.144;25.200;2024-01-30T01:16:09;102301.28;;;0.01;70.66
71149;BME280;59072;42.144;25.200;2024-01-30T01:18:34;102302.78;;;0.05;70.60
71149;BME280;59072;42.144;25.200;2024-01-30T01:21:00;102306.25;;;-0.23;72.19
71149;BME280;59072;42.144;25.200;2024-01-30T01:23:26;102302.97;;;-0.41;72.57
71149;BME280;59072;42.144;25.200;2024-01-30T01:25:51;102309.91;;;-0.40;73.79
71149;BME280;59072;42.144;25.200;2024-01-30T01:28:17;102291.84;;;-0.45;73.32
71149;BME280;59072;42.144;25.200;2024-01-30T01:30:42;102299.13;;;-0.50;74.14
71149;BME280;59072;42.144;25.200;2024-01-30T01:33:08;102294.28;;;-0.27;73.13
71149;BME280;59072;42.144;25.200;2024-01-30T01:35:34;102313.72;;;-0.46;73.50
71149;BME280;59072;42.144;25.200;2024-01-30T01:38:00;102301.59;;;-0.32;72.49
71149;BME280;59072;42.144;25.200;2024-01-30T01:40:27;102278.59;;;-0.72;74.25
71149;BME280;59072;42.144;25.200;2024-01-30T01:42:53;102296.13;;;-0.58;73.66
71149;BME280;59072;42.144;25.200;2024-01-30T01:45:20;102294.25;;;-0.56;73.81
71149;BME280;59072;42.144;25.200;2024-01-30T01:47:48;102292.97;;;-0.49;73.76
71149;BME280;59072;42.144;25.200;2024-01-30T01:50:16;102300.56;;;-0.30;72.41
71149;BME280;59072;42.144;25.200;2024-01-30T01:52:47;102261.22;;;-0.44;73.28
71149;BME280;59072;42.144;25.200;2024-01-30T01:55:13;102276.06;;;-0.73;73.67
71149;BME280;59072;42.144;25.200;2024-01-30T01:57:40;102294.44;;;-0.59;73.98
71149;BME280;59072;42.144;25.200;2024-01-30T02:00:08;102303.41;;;-0.63;74.89
71149;BME280;59072;42.144;25.200;2024-01-30T02:02:36;102301.38;;;-0.29;73.91
71149;BME280;59072;42.144;25.200;2024-01-30T02:05:02;102316.09;;;-0.12;73.76
71149;BME280;59072;42.144;25.200;2024-01-30T02:07:28;102301.09;;;-0.39;73.68
71149;BME280;59072;42.144;25.200;2024-01-30T02:09:54;102306.63;;;-0.29;72.79
71149;BME280;59072;42.144;25.200;2024-01-30T02:12:20;102282.84;;;-0.41;72.51
71149;BME280;59072;42.144;25.200;2024-01-30T02:14:46;102297.63;;;-0.54;72.44
71149;BME280;59072;42.144;25.200;2024-01-30T02:17:12;102299.97;;;-0.94;74.81
71149;BME280;59072;42.144;25.200;2024-01-30T02:19:38;102297.34;;;-1.40;75.75
71149;BME280;59072;42.144;25.200;2024-01-30T02:22:04;102304.88;;;-2.31;76.32
71149;BME280;59072;42.144;25.200;2024-01-30T02:24:29;102299.28;;;-2.40;77.45
71149;BME280;59072;42.144;25.200;2024-01-30T02:26:55;102311.47;;;-2.24;79.93
71149;BME280;59072;42.144;25.200;2024-01-30T02:29:20;102295.31;;;-1.83;77.93
71149;BME280;59072;42.144;25.200;2024-01-30T02:31:46;102306.47;;;-1.47;77.31
71149;BME280;59072;42.144;25.200;2024-01-30T02:34:12;102272.50;;;-1.33;77.97
71149;BME280;59072;42.144;25.200;2024-01-30T02:36:37;102245.34;;;-1.46;77.35
71149;BME280;59072;42.144;25.200;2024-01-30T02:39:03;102281.56;;;-1.86;79.77
71149;BME280;59072;42.144;25.200;2024-01-30T02:41:29;102278.59;;;-2.12;81.23
71149;BME280;59072;42.144;25.200;2024-01-30T02:43:54;102282.22;;;-2.14;82.47
71149;BME280;59072;42.144;25.200;2024-01-30T02:46:20;102279.75;;;-2.17;81.43
71149;BME280;59072;42.144;25.200;2024-01-30T02:48:45;102285.34;;;-2.08;81.85
71149;BME280;59072;42.144;25.200;2024-01-30T02:51:10;102288.22;;;-1.96;81.32
71149;BME280;59072;42.144;25.200;2024-01-30T02:53:36;102288.94;;;-1.61;80.49
71149;BME280;59072;42.144;25.200;2024-01-30T02:56:02;102306.72;;;-1.68;80.48
71149;BME280;59072;42.144;25.200;2024-01-30T02:58:28;102283.00;;;-1.96;81.20
71149;BME280;59072;42.144;25.200;2024-01-30T03:00:53;102293.13;;;-1.27;78.85
71149;BME280;59072;42.144;25.200;2024-01-30T03:03:19;102293.69;;;-1.22;79.18
71149;BME280;59072;42.144;25.200;2024-01-30T03:05:44;102263.91;;;-1.35;78.83
71149;BME280;59072;42.144;25.200;2024-01-30T03:08:09;102282.09;;;-1.02;78.04
71149;BME280;59072;42.144;25.200;2024-01-30T03:10:35;102262.72;;;-0.99;77.53
71149;BME280;59072;42.144;25.200;2024-01-30T03:13:00;102273.22;;;-0.85;76.98
71149;BME280;59072;42.144;25.200;2024-01-30T03:15:26;102270.97;;;-0.91;77.81
71149;BME280;59072;42.144;25.200;2024-01-30T03:17:52;102261.22;;;-1.03;79.30
71149;BME280;59072;42.144;25.200;2024-01-30T03:20:18;102272.09;;;-0.95;78.98
71149;BME280;59072;42.144;25.200;2024-01-30T03:22:43;102266.31;;;-0.86;78.56
71149;BME280;59072;42.144;25.200;2024-01-30T03:25:09;102292.38;;;-0.54;78.81
71149;BME280;59072;42.144;25.200;2024-01-30T03:27:34;102279.00;;;-0.49;78.20
71149;BME280;59072;42.144;25.200;2024-01-30T03:29:59;102281.34;;;-0.45;77.72
71149;BME280;59072;42.144;25.200;2024-01-30T03:32:25;102284.34;;;-0.51;78.24
71149;BME280;59072;42.144;25.200;2024-01-30T03:34:50;102264.00;;;-0.62;78.21
71149;BME280;59072;42.144;25.200;2024-01-30T03:37:16;102280.97;;;-0.53;79.02
71149;BME280;59072;42.144;25.200;2024-01-30T03:39:41;102278.53;;;-0.56;78.42
71149;BME280;59072;42.144;25.200;2024-01-30T03:42:06;102283.69;;;-0.40;78.33
71149;BME280;59072;42.144;25.200;2024-01-30T03:44:32;102269.00;;;-0.43;78.46
71149;BME280;59072;42.144;25.200;2024-01-30T03:46:57;102262.25;;;-0.47;78.40
71149;BME280;59072;42.144;25.200;2024-01-30T03:49:23;102245.66;;;-0.62;78.57
71149;BME280;59072;42.144;25.200;2024-01-30T03:51:48;102261.31;;;-0.46;77.43
71149;BME280;59072;42.144;25.200;2024-01-30T03:54:14;102271.41;;;-0.39;77.94
71149;BME280;59072;42.144;25.200;2024-01-30T03:56:39;102279.47;;;-0.43;77.95
71149;BME280;59072;42.144;25.200;2024-01-30T03:59:04;102269.75;;;-0.41;77.80
71149;BME280;59072;42.144;25.200;2024-01-30T04:01:30;102261.69;;;-0.37;78.05
71149;BME280;59072;42.144;25.200;2024-01-30T04:03:55;102278.81;;;-0.17;77.54
71149;BME280;59072;42.144;25.200;2024-01-30T04:06:21;102264.13;;;-0.20;76.79
71149;BME280;59072;42.144;25.200;2024-01-30T04:08:46;102262.03;;;-0.15;76.38
71149;BME280;59072;42.144;25.200;2024-01-30T04:11:11;102270.88;;;-0.16;77.39
71149;BME280;59072;42.144;25.200;2024-01-30T04:13:37;102270.09;;;-0.04;78.43
71149;BME280;59072;42.144;25.200;2024-01-30T04:16:03;102283.59;;;0.05;77.86
71149;BME280;59072;42.144;25.200;2024-01-30T04:18:28;102278.63;;;0.00;77.99
71149;BME280;59072;42.144;25.200;2024-01-30T04:20:54;102253.97;;;0.03;76.83
71149;BME280;59072;42.144;25.200;2024-01-30T04:23:19;102274.75;;;0.06;77.15
71149;BME280;59072;42.144;25.200;2024-01-30T04:25:45;102267.84;;;0.05;77.50
71149;BME280;59072;42.144;25.200;2024-01-30T04:28:10;102284.31;;;0.21;77.03
71149;BME280;59072;42.144;25.200;2024-01-30T04:30:37;102287.22;;;0.16;77.67
71149;BME280;59072;42.144;25.200;2024-01-30T04:33:03;102275.34;;;-0.04;78.59
71149;BME280;59072;42.144;25.200;2024-01-30T04:35:29;102284.50;;;0.04;78.79
71149;BME280;59072;42.144;25.200;2024-01-30T04:37:54;102274.13;;;0.02;78.64
71149;BME280;59072;42.144;25.200;2024-01-30T04:40:21;102300.63;;;0.12;78.94
71149;BME280;59072;42.144;25.200;2024-01-30T04:42:46;102286.75;;;0.10;78.28
71149;BME280;59072;42.144;25.200;2024-01-30T04:45:12;102300.81;;;0.23;77.25
71149;BME280;59072;42.144;25.200;2024-01-30T04:47:37;102288.53;;;0.24;77.39
71149;BME280;59072;42.144;25.200;2024-01-30T04:50:05;102294.97;;;0.18;78.29
71149;BME280;59072;42.144;25.200;2024-01-30T04:52:31;102306.72;;;0.27;77.66
71149;BME280;59072;42.144;25.200;2024-01-30T04:54:57;102296.31;;;0.25;77.26
71149;BME280;59072;42.144;25.200;2024-01-30T04:57:22;102292.94;;;0.23;77.26
71149;BME280;59072;42.144;25.200;2024-01-30T04:59:47;102281.13;;;0.16;78.34
71149;BME280;59072;42.144;25.200;2024-01-30T05:02:13;102293.50;;;0.14;77.68
71149;BME280;59072;42.144;25.200;2024-01-30T05:04:38;102307.94;;;0.21;78.44
71149;BME280;59072;42.144;25.200;2024-01-30T05:07:05;102278.75;;;-0.16;79.19
71149;BME280;59072;42.144;25.200;2024-01-30T05:09:31;102296.13;;;-0.01;80.33
71149;BME280;59072;42.144;25.200;2024-01-30T05:11:56;102274.78;;;-0.09;79.17
71149;BME280;59072;42.144;25.200;2024-01-30T05:14:21;102313.19;;;0.07;80.45
71149;BME280;59072;42.144;25.200;2024-01-30T05:16:47;102315.81;;;0.21;79.57
71149;BME280;59072;42.144;25.200;2024-01-30T05:19:15;102313.84;;;0.25;79.30
71149;BME280;59072;42.144;25.200;2024-01-30T05:21:41;102312.03;;;0.25;80.06
71149;BME280;59072;42.144;25.200;2024-01-30T05:24:06;102314.59;;;0.27;78.38
71149;BME280;59072;42.144;25.200;2024-01-30T05:26:32;102314.66;;;0.25;79.24
71149;BME280;59072;42.144;25.200;2024-01-30T05:28:57;102316.47;;;0.25;79.64
71149;BME280;59072;42.144;25.200;2024-01-30T05:31:23;102302.59;;;0.23;79.00
71149;BME280;59072;42.144;25.200;2024-01-30T05:33:48;102283.19;;;0.11;79.97
71149;BME280;59072;42.144;25.200;2024-01-30T05:36:14;102319.28;;;0.49;78.95
71149;BME280;59072;42.144;25.200;2024-01-30T05:38:39;102302.66;;;0.35;78.82
71149;BME280;59072;42.144;25.200;2024-01-30T05:41:04;102308.94;;;0.33;79.67
71149;BME280;59072;42.144;25.200;2024-01-30T05:43:30;102295.19;;;0.15;80.14
71149;BME280;59072;42.144;25.200;2024-01-30T05:45:55;102300.41;;;0.29;79.32
71149;BME280;59072;42.144;25.200;2024-01-30T05:48:21;102325.88;;;0.42;79.31
71149;BME280;59072;42.144;25.200;2024-01-30T05:50:46;102319.13;;;0.52;78.19
71149;BME280;59072;42.144;25.200;2024-01-30T05:53:11;102330.69;;;0.35;78.37
71149;BME280;59072;42.144;25.200;2024-01-30T05:55:37;102320.75;;;0.26;80.15
71149;BME280;59072;42.144;25.200;2024-01-30T05:58:03;102284.31;;;0.21;78.73
71149;BME280;59072;42.144;25.200;2024-01-30T06:00:29;102334.97;;;0.36;79.94
71149;BME280;59072;42.144;25.200;2024-01-30T06:02:54;102339.56;;;0.32;79.88
71149;BME280;59072;42.144;25.200;2024-01-30T06:05:20;102317.75;;;0.32;78.99
71149;BME280;59072;42.144;25.200;2024-01-30T06:07:45;102314.44;;;0.43;77.47
71149;BME280;59072;42.144;25.200;2024-01-30T06:10:10;102336.75;;;0.50;78.57
71149;BME280;59072;42.144;25.200;2024-01-30T06:12:36;102337.97;;;0.44;80.05
71149;BME280;59072;42.144;25.200;2024-01-30T06:15:01;102297.03;;;0.27;80.38
71149;BME280;59072;42.144;25.200;2024-01-30T06:17:28;102314.97;;;0.62;78.39
71149;BME280;59072;42.144;25.200;2024-01-30T06:19:53;102314.03;;;0.49;79.43
71149;BME280;59072;42.144;25.200;2024-01-30T06:22:18;102305.56;;;0.31;80.40
71149;BME280;59072;42.144;25.200;2024-01-30T06:24:45;102311.44;;;0.34;80.50
71149;BME280;59072;42.144;25.200;2024-01-30T06:27:11;102320.72;;;0.40;79.39
71149;BME280;59072;42.144;25.200;2024-01-30T06:29:36;102320.06;;;0.36;80.22
71149;BME280;59072;42.144;25.200;2024-01-30T06:32:02;102292.56;;;0.15;80.84
71149;BME280;59072;42.144;25.200;2024-01-30T06:34:27;102321.22;;;0.32;81.15
71149;BME280;59072;42.144;25.200;2024-01-30T06:36:52;102321.56;;;0.40;81.42
71149;BME280;59072;42.144;25.200;2024-01-30T06:39:18;102318.47;;;0.48;80.56
71149;BME280;59072;42.144;25.200;2024-01-30T06:41:44;102310.22;;;0.40;81.56
71149;BME280;59072;42.144;25.200;2024-01-30T06:44:11;102334.88;;;0.52;80.95
71149;BME280;59072;42.144;25.200;2024-01-30T06:46:37;102325.50;;;0.48;80.84
71149;BME280;59072;42.144;25.200;2024-01-30T06:49:03;102320.25;;;0.48;81.51
71149;BME280;59072;42.144;25.200;2024-01-30T06:51:28;102321.69;;;0.66;80.50
71149;BME280;59072;42.144;25.200;2024-01-30T06:53:54;102296.09;;;0.28;81.74
71149;BME280;59072;42.144;25.200;2024-01-30T06:56:19;102324.19;;;0.40;81.52
71149;BME280;59072;42.144;25.200;2024-01-30T06:58:49;102335.03;;;0.49;82.15
71149;BME280;59072;42.144;25.200;2024-01-30T07:01:15;102331.88;;;0.44;81.60
71149;BME280;59072;42.144;25.200;2024-01-30T07:03:42;102347.88;;;0.68;81.45
71149;BME280;59072;42.144;25.200;2024-01-30T07:06:08;102353.16;;;0.80;80.18
71149;BME280;59072;42.144;25.200;2024-01-30T07:08:33;102335.22;;;0.87;79.17
71149;BME280;59072;42.144;25.200;2024-01-30T07:10:59;102316.28;;;0.55;80.78
71149;BME280;59072;42.144;25.200;2024-01-30T07:13:24;102327.53;;;0.57;80.70
71149;BME280;59072;42.144;25.200;2024-01-30T07:15:50;102325.19;;;0.52;80.65
71149;BME280;59072;42.144;25.200;2024-01-30T07:18:15;102339.13;;;0.67;81.37
71149;BME280;59072;42.144;25.200;2024-01-30T07:20:41;102322.13;;;0.46;81.17
71149;BME280;59072;42.144;25.200;2024-01-30T07:23:15;102347.78;;;0.55;81.34
71149;BME280;59072;42.144;25.200;2024-01-30T07:25:46;102348.78;;;0.67;80.72
71149;BME280;59072;42.144;25.200;2024-01-30T07:28:14;102319.16;;;0.65;80.20
71149;BME280;59072;42.144;25.200;2024-01-30T07:30:42;102355.88;;;0.79;81.35
71149;BME280;59072;42.144;25.200;2024-01-30T07:33:08;102352.22;;;0.82;78.10
71149;BME280;59072;42.144;25.200;2024-01-30T07:35:34;102339.63;;;0.87;78.17
71149;BME280;59072;42.144;25.200;2024-01-30T07:37:59;102353.78;;;0.98;77.47
71149;BME280;59072;42.144;25.200;2024-01-30T07:40:25;102345.63;;;0.89;78.24
71149;BME280;59072;42.144;25.200;2024-01-30T07:42:50;102339.63;;;0.87;77.50
71149;BME280;59072;42.144;25.200;2024-01-30T07:45:16;102332.72;;;0.71;78.39
71149;BME280;59072;42.144;25.200;2024-01-30T07:47:41;102335.84;;;0.78;78.53
71149;BME280;59072;42.144;25.200;2024-01-30T07:50:08;102346.47;;;0.89;78.01
71149;BME280;59072;42.144;25.200;2024-01-30T07:52:33;102299.84;;;0.66;77.71
71149;BME280;59072;42.144;25.200;2024-01-30T07:58:01;102342.25;;;0.87;77.65
71149;BME280;59072;42.144;25.200;2024-01-30T08:00:28;102314.06;;;0.76;78.11
71149;BME280;59072;42.144;25.200;2024-01-30T08:02:57;102319.53;;;0.86;77.67
71149;BME280;59072;42.144;25.200;2024-01-30T08:05:22;102308.31;;;0.84;78.41
71149;BME280;59072;42.144;25.200;2024-01-30T08:07:51;102322.03;;;1.02;77.21
71149;BME280;59072;42.144;25.200;2024-01-30T08:10:16;102335.75;;;1.32;76.14
71149;BME280;59072;42.144;25.200;2024-01-30T08:12:44;102322.50;;;1.21;75.58
71149;BME280;59072;42.144;25.200;2024-01-30T08:15:10;102309.38;;;1.34;74.52
71149;BME280;59072;42.144;25.200;2024-01-30T08:17:35;102330.00;;;1.40;74.04
71149;BME280;59072;42.144;25.200;2024-01-30T08:20:00;102330.94;;;1.39;74.29
71149;BME280;59072;42.144;25.200;2024-01-30T08:22:26;102311.56;;;1.27;73.90
71149;BME280;59072;42.144;25.200;2024-01-30T08:24:51;102348.44;;;1.66;73.60
71149;BME280;59072;42.144;25.200;2024-01-30T08:27:17;102341.78;;;1.60;73.05
71149;BME280;59072;42.144;25.200;2024-01-30T08:29:42;102340.41;;;1.54;73.46
71149;BME280;59072;42.144;25.200;2024-01-30T08:32:07;102324.72;;;1.40;73.66
71149;BME280;59072;42.144;25.200;2024-01-30T08:34:33;102337.28;;;1.49;73.50
71149;BME280;59072;42.144;25.200;2024-01-30T08:36:59;102338.94;;;1.50;74.21
71149;BME280;59072;42.144;25.200;2024-01-30T08:39:24;102337.28;;;1.49;74.14
71149;BME280;59072;42.144;25.200;2024-01-30T08:41:50;102365.06;;;1.79;72.48
71149;BME280;59072;42.144;25.200;2024-01-30T08:44:16;102349.59;;;1.74;73.34
71149;BME280;59072;42.144;25.200;2024-01-30T08:46:43;102365.69;;;1.95;71.39
71149;BME280;59072;42.144;25.200;2024-01-30T08:49:08;102372.97;;;2.05;72.00
71149;BME280;59072;42.144;25.200;2024-01-30T08:51:34;102357.78;;;1.95;71.46
71149;BME280;59072;42.144;25.200;2024-01-30T08:53:59;102377.25;;;2.06;71.40
71149;BME280;59072;42.144;25.200;2024-01-30T08:56:25;102342.09;;;1.94;72.18
71149;BME280;59072;42.144;25.200;2024-01-30T08:58:50;102354.97;;;1.98;71.76
71149;BME280;59072;42.144;25.200;2024-01-30T09:01:16;102362.22;;;1.95;72.25
71149;BME280;59072;42.144;25.200;2024-01-30T09:03:41;102365.78;;;2.07;70.28
71149;BME280;59072;42.144;25.200;2024-01-30T09:06:11;102364.84;;;1.95;71.63
71149;BME280;59072;42.144;25.200;2024-01-30T09:08:37;102377.25;;;2.06;72.56
71149;BME280;59072;42.144;25.200;2024-01-30T09:11:12;102361.03;;;2.12;71.11
71149;BME280;59072;42.144;25.200;2024-01-30T09:13:38;102374.69;;;2.42;69.99
71149;BME280;59072;42.144;25.200;2024-01-30T09:16:04;102371.75;;;2.34;70.62
71149;BME280;59072;42.144;25.200;2024-01-30T09:18:29;102348.84;;;2.11;69.13
71149;BME280;59072;42.144;25.200;2024-01-30T09:20:54;102347.25;;;2.21;71.16
71149;BME280;59072;42.144;25.200;2024-01-30T09:23:20;102373.81;;;2.55;71.41
71149;BME280;59072;42.144;25.200;2024-01-30T09:25:45;102376.13;;;2.84;70.34
71149;BME280;59072;42.144;25.200;2024-01-30T09:28:11;102377.31;;;2.79;68.34
71149;BME280;59072;42.144;25.200;2024-01-30T09:30:36;102380.03;;;2.91;67.38
71149;BME280;59072;42.144;25.200;2024-01-30T09:33:02;102342.94;;;2.81;68.37
71149;BME280;59072;42.144;25.200;2024-01-30T09:35:27;102369.25;;;2.94;67.84
71149;BME280;59072;42.144;25.200;2024-01-30T09:37:53;102323.28;;;2.74;67.45
71149;BME280;59072;42.144;25.200;2024-01-30T09:40:18;102336.31;;;2.99;66.59
71149;BME280;59072;42.144;25.200;2024-01-30T09:42:50;102362.09;;;3.31;66.70
71149;BME280;59072;42.144;25.200;2024-01-30T09:45:17;102333.19;;;3.30;66.04
71149;BME280;59072;42.144;25.200;2024-01-30T09:47:43;102356.78;;;3.67;63.39
71149;BME280;59072;42.144;25.200;2024-01-30T09:50:12;102352.31;;;3.45;64.79
71149;BME280;59072;42.144;25.200;2024-01-30T09:52:37;102330.91;;;3.25;66.24
71149;BME280;59072;42.144;25.200;2024-01-30T09:55:04;102340.53;;;3.37;66.07
71149;BME280;59072;42.144;25.200;2024-01-30T09:57:29;102312.56;;;3.24;64.86
71149;BME280;59072;42.144;25.200;2024-01-30T09:59:55;102326.94;;;3.19;63.34
71149;BME280;59072;42.144;25.200;2024-01-30T10:02:21;102306.84;;;2.94;64.71
71149;BME280;59072;42.144;25.200;2024-01-30T10:04:51;102296.50;;;2.91;65.51
71149;BME280;59072;42.144;25.200;2024-01-30T10:07:17;102311.88;;;2.97;66.35
71149;BME280;59072;42.144;25.200;2024-01-30T10:09:43;102320.00;;;3.30;65.25
71149;BME280;59072;42.144;25.200;2024-01-30T10:12:12;102312.78;;;3.20;64.91
71149;BME280;59072;42.144;25.200;2024-01-30T10:14:41;102312.47;;;3.25;66.09
71149;BME280;59072;42.144;25.200;2024-01-30T10:17:11;102313.31;;;3.37;65.85
71149;BME280;59072;42.144;25.200;2024-01-30T10:19:37;102321.47;;;3.45;64.05
71149;BME280;59072;42.144;25.200;2024-01-30T10:22:04;102307.09;;;3.49;64.52
71149;BME280;59072;42.144;25.200;2024-01-30T10:24:29;102266.09;;;3.34;64.48
71149;BME280;59072;42.144;25.200;2024-01-30T10:26:55;102300.63;;;3.53;63.83
71149;BME280;59072;42.144;25.200;2024-01-30T10:29:21;102287.72;;;3.73;63.22
71149;BME280;59072;42.144;25.200;2024-01-30T10:32:03;102299.22;;;3.83;62.86
71149;BME280;59072;42.144;25.200;2024-01-30T10:34:29;102263.25;;;3.71;65.09
71149;BME280;59072;42.144;25.200;2024-01-30T10:37:10;102285.28;;;3.92;62.09
71149;BME280;59072;42.144;25.200;2024-01-30T10:39:42;102286.25;;;3.69;62.42
71149;BME280;59072;42.144;25.200;2024-01-30T10:42:12;102287.44;;;3.76;62.64
71149;BME280;59072;42.144;25.200;2024-01-30T10:47:27;102286.63;;;4.09;62.76
71149;BME280;59072;42.144;25.200;2024-01-30T10:49:54;102295.34;;;4.32;63.22
71149;BME280;59072;42.144;25.200;2024-01-30T10:52:20;102271.34;;;4.24;60.70
71149;BME280;59072;42.144;25.200;2024-01-30T10:54:46;102282.13;;;4.43;60.73
71149;BME280;59072;42.144;25.200;2024-01-30T10:57:13;102274.25;;;4.65;60.54
71149;BME280;59072;42.144;25.200;2024-01-30T10:59:41;102293.28;;;4.79;57.23
71149;BME280;59072;42.144;25.200;2024-01-30T11:02:07;102275.06;;;4.65;59.70
71149;BME280;59072;42.144;25.200;2024-01-30T11:04:57;102280.91;;;4.80;56.52
71149;BME280;59072;42.144;25.200;2024-01-30T11:07:27;102275.56;;;4.91;58.40
71149;BME280;59072;42.144;25.200;2024-01-30T11:09:59;102253.59;;;4.91;56.63
71149;BME280;59072;42.144;25.200;2024-01-30T11:12:29;102284.81;;;4.97;57.47
71149;BME280;59072;42.144;25.200;2024-01-30T11:18:00;102269.34;;;5.13;57.99
71149;BME280;59072;42.144;25.200;2024-01-30T11:20:27;102271.00;;;5.14;58.24
71149;BME280;59072;42.144;25.200;2024-01-30T11:22:56;102253.59;;;4.91;55.51
71149;BME280;59072;42.144;25.200;2024-01-30T11:25:23;102262.34;;;5.12;54.19
71149;BME280;59072;42.144;25.200;2024-01-30T11:27:51;102240.81;;;4.96;54.18
71149;BME280;59072;42.144;25.200;2024-01-30T11:30:27;102254.34;;;5.02;53.11
71149;BME280;59072;42.144;25.200;2024-01-30T11:35:31;102242.00;;;5.03;51.67
71149;BME280;59072;42.144;25.200;2024-01-30T11:37:58;102257.66;;;5.16;51.59
71149;BME280;59072;42.144;25.200;2024-01-30T11:40:29;102223.53;;;4.92;50.58
71149;BME280;59072;42.144;25.200;2024-01-30T11:42:55;102226.25;;;4.80;51.22
71149;BME280;59072;42.144;25.200;2024-01-30T11:45:21;102248.94;;;5.04;51.45
71149;BME280;59072;42.144;25.200;2024-01-30T11:47:47;102238.63;;;5.01;51.49
71149;BME280;59072;42.144;25.200;2024-01-30T11:50:12;102186.50;;;4.50;51.29
71149;BME280;59072;42.144;25.200;2024-01-30T11:52:39;102227.50;;;4.86;50.82
71149;BME280;59072;42.144;25.200;2024-01-30T11:55:05;102218.00;;;4.95;50.67
71149;BME280;59072;42.144;25.200;2024-01-30T11:57:30;102190.66;;;4.31;51.60
71149;BME280;59072;42.144;25.200;2024-01-30T11:59:56;102198.63;;;4.73;51.13
71149;BME280;59072;42.144;25.200;2024-01-30T12:02:21;102199.28;;;4.87;51.62
71149;BME280;59072;42.144;25.200;2024-01-30T12:04:47;102192.19;;;4.66;52.10
71149;BME280;59072;42.144;25.200;2024-01-30T12:07:12;102198.19;;;4.89;51.02
71149;BME280;59072;42.144;25.200;2024-01-30T12:09:41;102204.59;;;4.87;50.57
71149;BME280;59072;42.144;25.200;2024-01-30T12:12:07;102173.63;;;4.77;50.95
71149;BME280;59072;42.144;25.200;2024-01-30T12:14:38;102189.59;;;4.76;50.45
71149;BME280;59072;42.144;25.200;2024-01-30T12:17:04;102167.19;;;4.70;51.49
71149;BME280;59072;42.144;25.200;2024-01-30T12:19:30;102170.66;;;4.50;50.30
71149;BME280;59072;42.144;25.200;2024-01-30T12:21:58;102163.69;;;4.49;51.17
71149;BME280;59072;42.144;25.200;2024-01-30T12:24:25;102176.63;;;4.94;49.59
71149;BME280;59072;42.144;25.200;2024-01-30T12:26:51;102159.44;;;4.78;49.30
71149;BME280;59072;42.144;25.200;2024-01-30T12:29:17;102170.84;;;5.00;50.95
71149;BME280;59072;42.144;25.200;2024-01-30T12:31:42;102187.19;;;5.15;48.95
71149;BME280;59072;42.144;25.200;2024-01-30T12:34:09;102197.94;;;5.23;48.23
71149;BME280;59072;42.144;25.200;2024-01-30T12:36:34;102198.81;;;5.23;48.25
71149;BME280;59072;42.144;25.200;2024-01-30T12:39:00;102194.03;;;5.79;47.31
71149;BME280;59072;42.144;25.200;2024-01-30T12:41:26;102183.09;;;6.22;45.76
71149;BME280;59072;42.144;25.200;2024-01-30T12:43:54;102183.41;;;6.68;43.26
71149;BME280;59072;42.144;25.200;2024-01-30T12:46:19;102178.78;;;6.41;44.12
71149;BME280;59072;42.144;25.200;2024-01-30T12:48:45;102199.28;;;6.97;43.90
71149;BME280;59072;42.144;25.200;2024-01-30T12:51:10;102210.75;;;7.73;41.42
71149;BME280;59072;42.144;25.200;2024-01-30T12:53:36;102180.00;;;7.70;40.60